Time;durP1;ratioP1;P1;durP2;ratioP2;P2;SDS_P1;SDS_P2;PMS_P1;PMS_P2;Temp;Humidity;BMP_temperature;BMP_pressure;BME280_temperature;BME280_humidity;BME280_pressure;Samples;Min_cycle;Max_cycle;Signal;HPM_P1;HPM_P2
2023/11/21 00:01:36;;;;;;;;;;;5.80;99.90;;;;;;5071219;28;20024;-76
2023/11/21 00:04:01;;;;;;;40.35;18.45;;;5.80;99.90;;;;;;5071578;28;20403;-76
2023/11/21 00:06:27;;;;;;;;;;;5.80;99.90;;;;;;5071365;28;20025;-75
2023/11/21 00:08:52;;;;;;;38.97;17.45;;;5.70;99.90;;;;;;5071110;28;19911;-75
2023/11/21 00:11:18;;;;;;;;;;;5.70;99.90;;;;;;5071593;28;20029;-75
2023/11/21 00:13:45;;;;;;;33.05;13.27;;;5.70;99.90;;;;;;5071212;28;19969;-75
2023/11/21 00:16:11;;;;;;;30.10;10.55;;;5.80;99.90;;;;;;5071698;28;20029;-75
2023/11/21 00:18:36;;;;;;;;;;;5.80;99.90;;;;;;5073354;28;20090;-75
2023/11/21 00:21:03;;;;;;;14.90;6.43;;;5.80;99.90;;;;;;5072514;28;19967;-75
2023/11/21 00:23:29;;;;;;;20.77;7.15;;;5.80;99.90;;;;;;5073622;28;20053;-76
2023/11/21 00:25:54;;;;;;;;;;;5.80;99.90;;;;;;5075987;28;20032;-75
2023/11/21 00:28:20;;;;;;;11.57;5.15;;;5.70;99.90;;;;;;5072311;28;19995;-75
2023/11/21 00:30:45;;;;;;;;;;;5.70;99.90;;;;;;5072016;28;20512;-75
2023/11/21 00:33:11;;;;;;;13.80;5.93;;;5.60;99.90;;;;;;5071845;28;19938;-75
2023/11/21 00:35:36;;;;;;;;;;;5.50;99.90;;;;;;5072213;28;20039;-74
2023/11/21 00:38:03;;;;;;;10.73;3.95;;;5.50;99.90;;;;;;5072142;28;19924;-75
2023/11/21 00:40:29;;;;;;;17.83;5.05;;;5.60;99.90;;;;;;5071214;28;20412;-75
2023/11/21 00:42:55;;;;;;;;;;;5.50;99.90;;;;;;5072057;28;20025;-74
2023/11/21 00:45:21;;;;;;;10.10;4.35;;;5.60;99.90;;;;;;5071517;28;19904;-75
2023/11/21 00:47:47;;;;;;;;;;;5.50;99.90;;;;;;5072145;28;20082;-75
2023/11/21 00:50:12;;;;;;;11.95;4.47;;;5.50;99.90;;;;;;5069800;28;19912;-75
2023/11/21 00:52:38;;;;;;;;;;;5.40;99.90;;;;;;5071363;28;20024;-75
2023/11/21 00:55:07;;;;;;;9.27;3.67;;;5.30;99.90;;;;;;5071043;28;19908;-75
2023/11/21 00:57:33;;;;;;;8.00;3.42;;;5.30;99.90;;;;;;5069774;28;20067;-75
2023/11/21 00:59:58;;;;;;;;;;;5.30;99.90;;;;;;5069822;28;20047;-75
2023/11/21 01:02:25;;;;;;;13.50;4.18;;;5.40;99.90;;;;;;5069463;28;19916;-74
2023/11/21 01:04:50;;;;;;;17.10;5.32;;;5.30;99.90;;;;;;5070436;28;20043;-75
2023/11/21 01:07:16;;;;;;;;;;;5.30;99.90;;;;;;5070738;28;20720;-75
2023/11/21 01:09:44;;;;;;;294.15;113.78;;;5.20;99.90;;;;;;5070321;28;19905;-76
2023/11/21 01:12:09;;;;;;;138.15;51.88;;;5.10;99.90;;;;;;5070387;28;20040;-75
2023/11/21 01:14:36;;;;;;;;;;;5.10;99.90;;;;;;5070627;28;20443;-75
2023/11/21 01:17:04;;;;;;;73.80;28.42;;;5.10;99.90;;;;;;5069573;28;20288;-75
2023/11/21 01:19:30;;;;;;;44.72;19.25;;;5.10;99.90;;;;;;5068848;28;20135;-75
2023/11/21 01:21:55;;;;;;;;;;;5.10;99.90;;;;;;5070591;28;20134;-75
2023/11/21 01:24:21;;;;;;;23.17;10.18;;;5.00;99.90;;;;;;5070222;28;19915;-76
2023/11/21 01:26:46;;;;;;;;;;;5.00;99.90;;;;;;5068976;28;20025;-74
2023/11/21 01:29:12;;;;;;;21.30;7.68;;;5.00;99.90;;;;;;5070341;28;19915;-75
2023/11/21 01:31:38;;;;;;;;;;;5.00;99.90;;;;;;5070833;28;20028;-75
2023/11/21 01:34:04;;;;;;;19.85;9.23;;;5.00;99.90;;;;;;5070158;28;19970;-75
2023/11/21 01:36:34;;;;;;;19.50;7.35;;;5.20;99.90;;;;;;5068631;28;20186;-75
2023/11/21 01:39:00;;;;;;;28.98;10.73;;;5.40;99.90;;;;;;5069888;28;20044;-75
2023/11/21 01:41:28;;;;;;;24.63;10.40;;;5.40;99.90;;;;;;5070114;28;20790;-75
2023/11/21 01:43:54;;;;;;;25.17;11.75;;;5.40;99.90;;;;;;5069933;28;20020;-75
2023/11/21 01:46:21;;;;;;;22.13;10.52;;;5.30;99.90;;;;;;5070025;28;20029;-74
2023/11/21 01:48:48;;;;;;;20.67;10.45;;;5.20;99.90;;;;;;5068393;28;20032;-75
2023/11/21 01:51:15;;;;;;;16.85;6.90;;;5.10;99.90;;;;;;5070064;28;20025;-75
2023/11/21 01:53:41;;;;;;;15.38;6.05;;;5.20;99.90;;;;;;5069770;28;20488;-75
2023/11/21 01:56:08;;;;;;;;;;;5.10;99.90;;;;;;5069476;28;20028;-74
2023/11/21 01:58:34;;;;;;;16.92;6.97;;;5.20;99.90;;;;;;5068455;28;19925;-75
2023/11/21 02:00:59;;;;;;;;;;;5.20;99.90;;;;;;5068965;28;20037;-75
2023/11/21 02:03:26;;;;;;;20.50;6.70;;;5.30;99.90;;;;;;5069838;28;19904;-75
2023/11/21 02:05:53;;;;;;;15.43;6.22;;;5.40;99.90;;;;;;5070013;28;20539;-73
2023/11/21 02:08:19;;;;;;;18.48;7.40;;;5.20;99.90;;;;;;5069026;28;20024;-75
2023/11/21 02:10:45;;;;;;;;;;;5.20;99.90;;;;;;5070896;28;20077;-75
2023/11/21 02:13:11;;;;;;;14.00;5.90;;;5.10;99.90;;;;;;5070248;28;19999;-75
2023/11/21 02:15:38;;;;;;;;;;;5.30;99.90;;;;;;5071517;28;20489;-74
2023/11/21 02:18:05;;;;;;;13.98;4.85;;;5.40;99.90;;;;;;5069237;28;19916;-75
2023/11/21 02:20:34;;;;;;;12.18;5.00;;;5.50;99.90;;;;;;5071351;28;20492;-75
2023/11/21 02:23:00;;;;;;;13.88;5.15;;;5.40;99.90;;;;;;5069967;28;20032;-75
2023/11/21 02:25:29;;;;;;;;;;;5.50;99.90;;;;;;5072325;28;20047;-75
2023/11/21 02:27:59;;;;;;;15.57;5.75;;;5.40;99.90;;;;;;5073660;28;19905;-75
2023/11/21 02:30:27;;;;;;;15.00;5.22;;;5.60;99.90;;;;;;5073180;28;20036;-75
2023/11/21 02:32:53;;;;;;;13.18;4.53;;;5.50;99.90;;;;;;5073142;28;20035;-75
2023/11/21 02:35:21;;;;;;;;;;;5.40;99.90;;;;;;5076531;28;20033;-75
2023/11/21 02:37:47;;;;;;;16.55;4.93;;;5.30;99.90;;;;;;5075747;28;19966;-75
2023/11/21 02:40:12;;;;;;;19.20;6.45;;;5.30;99.90;;;;;;5073584;28;20043;-76
2023/11/21 02:42:39;;;;;;;;;;;5.20;99.90;;;;;;5074082;28;20029;-75
2023/11/21 02:45:06;;;;;;;18.53;5.53;;;5.20;99.90;;;;;;5073310;28;19911;-75
2023/11/21 02:47:33;;;;;;;12.50;4.07;;;5.20;99.90;;;;;;5072481;28;20399;-75
2023/11/21 02:49:59;;;;;;;10.48;3.17;;;5.30;99.90;;;;;;5072675;28;20034;-76
2023/11/21 02:52:25;;;;;;;;;;;5.20;99.90;;;;;;5074000;28;20435;-76
2023/11/21 02:54:51;;;;;;;26.23;4.28;;;5.20;99.90;;;;;;5073328;28;19916;-75
2023/11/21 02:57:16;;;;;;;7.85;2.65;;;5.10;99.90;;;;;;5072244;28;20048;-76
2023/11/21 02:59:42;;;;;;;;;;;5.10;99.90;;;;;;5073871;28;20064;-75
2023/11/21 03:02:08;;;;;;;11.98;4.32;;;5.00;99.90;;;;;;5073641;28;19905;-75
2023/11/21 03:04:34;;;;;;;;;;;5.00;99.90;;;;;;5075236;28;20166;-75
2023/11/21 03:07:00;;;;;;;13.57;4.07;;;4.90;99.90;;;;;;5073270;28;20372;-76
2023/11/21 03:09:26;;;;;;;;;;;4.90;99.90;;;;;;5075239;28;20105;-76
2023/11/21 03:11:53;;;;;;;22.25;9.57;;;4.80;99.90;;;;;;5072805;28;19912;-76
2023/11/21 03:14:18;;;;;;;24.15;10.38;;;4.80;99.90;;;;;;5073504;28;20031;-75
2023/11/21 03:16:45;;;;;;;;;;;4.90;99.90;;;;;;5072826;28;20029;-75
2023/11/21 03:19:11;;;;;;;15.90;7.85;;;4.90;99.90;;;;;;5072028;28;19956;-75
2023/11/21 03:21:36;;;;;;;10.73;5.07;;;4.80;99.90;;;;;;5072350;28;20102;-76
2023/11/21 03:24:02;;;;;;;;;;;4.80;99.90;;;;;;5073031;28;20135;-75
2023/11/21 03:26:29;;;;;;;12.25;3.78;;;4.80;99.90;;;;;;5072183;28;19918;-76
2023/11/21 03:28:55;;;;;;;10.13;3.72;;;4.80;99.90;;;;;;5072137;28;20103;-75
2023/11/21 03:31:21;;;;;;;;;;;4.80;99.90;;;;;;5073645;28;20024;-75
2023/11/21 03:33:47;;;;;;;7.88;3.47;;;4.70;99.90;;;;;;5074182;28;19911;-75
2023/11/21 03:36:14;;;;;;;;;;;4.60;99.90;;;;;;5074047;28;20040;-75
2023/11/21 03:38:41;;;;;;;9.07;2.95;;;4.70;99.90;;;;;;5071130;28;19920;-75
2023/11/21 03:41:10;;;;;;;5.13;2.28;;;4.60;99.90;;;;;;5072488;28;20025;-75
2023/11/21 03:43:36;;;;;;;10.57;2.80;;;4.60;99.90;;;;;;5073774;28;20082;-75
2023/11/21 03:46:02;;;;;;;6.35;2.70;;;4.60;99.90;;;;;;5073262;28;20032;-75
2023/11/21 03:48:28;;;;;;;7.68;2.83;;;4.60;99.90;;;;;;5073478;28;20029;-76
2023/11/21 03:50:53;;;;;;;;;;;4.50;99.90;;;;;;5074627;28;20031;-75
2023/11/21 03:53:19;;;;;;;8.57;2.60;;;4.50;99.90;;;;;;5073100;28;20377;-76
2023/11/21 03:55:44;;;;;;;;;;;4.50;99.90;;;;;;5074228;28;20032;-75
2023/11/21 03:58:10;;;;;;;9.15;3.17;;;4.50;99.90;;;;;;5073963;28;19916;-75
2023/11/21 04:00:35;;;;;;;;;;;4.50;99.90;;;;;;5072524;28;20032;-75
2023/11/21 04:03:01;;;;;;;9.95;4.03;;;4.50;99.90;;;;;;5072873;28;19923;-75
2023/11/21 04:05:26;;;;;;;;;;;4.50;99.90;;;;;;5072014;28;20778;-75
2023/11/21 04:07:52;;;;;;;7.05;2.78;;;4.50;99.90;;;;;;5072018;28;20395;-76
2023/11/21 04:10:18;;;;;;;;;;;4.50;99.90;;;;;;5071277;28;20024;-76
2023/11/21 04:12:45;;;;;;;9.45;2.70;;;4.60;99.90;;;;;;5070487;28;19905;-76
2023/11/21 04:15:12;;;;;;;9.35;2.47;;;4.60;99.90;;;;;;5071892;28;20060;-75
2023/11/21 04:17:38;;;;;;;8.70;2.38;;;4.60;99.90;;;;;;5071694;28;20043;-75
2023/11/21 04:20:08;;;;;;;;;;;4.60;99.90;;;;;;5070805;28;20044;-75
2023/11/21 04:22:40;;;;;;;5.97;2.10;;;4.60;99.90;;;;;;5070831;28;19913;-76
2023/11/21 04:25:14;;;;;;;8.43;3.00;;;4.60;99.90;;;;;;5070947;28;20028;-76
2023/11/21 04:27:43;;;;;;;9.02;4.40;;;4.70;99.90;;;;;;5071832;28;20578;-76
2023/11/21 04:30:10;;;;;;;12.05;4.45;;;4.70;99.90;;;;;;5072482;28;20032;-75
2023/11/21 04:32:35;;;;;;;13.60;4.57;;;4.80;99.90;;;;;;5072520;28;20037;-75
2023/11/21 04:35:01;;;;;;;;;;;4.70;99.90;;;;;;5071660;28;20170;-75
2023/11/21 04:37:27;;;;;;;10.13;4.20;;;4.70;99.90;;;;;;5072173;28;19920;-76
2023/11/21 04:39:52;;;;;;;;;;;4.60;99.90;;;;;;5071963;28;20041;-75
2023/11/21 04:42:18;;;;;;;10.27;4.43;;;4.60;99.90;;;;;;5073120;28;20432;-75
2023/11/21 04:44:44;;;;;;;;;;;4.60;99.90;;;;;;5073343;28;20037;-76
2023/11/21 04:47:10;;;;;;;24.35;11.00;;;4.50;99.90;;;;;;5072884;28;19908;-76
2023/11/21 04:49:35;;;;;;;;;;;4.50;99.90;;;;;;5072966;28;20043;-75
2023/11/21 04:52:02;;;;;;;15.55;6.90;;;4.60;99.90;;;;;;5070329;28;20398;-75
2023/11/21 04:54:30;;;;;;;15.50;4.68;;;4.60;99.90;;;;;;5070293;28;20035;-75
2023/11/21 04:56:56;;;;;;;20.92;7.32;;;4.50;99.90;;;;;;5068274;28;20103;-76
2023/11/21 04:59:24;;;;;;;;;;;4.40;99.90;;;;;;5068638;28;20079;-75
2023/11/21 05:01:50;;;;;;;17.20;8.05;;;4.40;99.90;;;;;;5070477;28;20003;-75
2023/11/21 05:04:15;;;;;;;;;;;4.60;99.90;;;;;;5070767;28;20115;-75
2023/11/21 05:06:41;;;;;;;12.30;3.78;;;4.60;99.90;;;;;;5068919;28;19958;-75
2023/11/21 05:09:11;;;;;;;;;;;4.70;99.90;;;;;;5069289;28;20505;-75
2023/11/21 05:11:37;;;;;;;6.75;2.55;;;4.70;99.90;;;;;;5068796;28;19908;-75
2023/11/21 05:14:04;;;;;;;;;;;4.80;99.90;;;;;;5070554;28;20028;-75
2023/11/21 05:16:29;;;;;;;9.88;3.63;;;4.70;99.90;;;;;;5070558;28;19904;-76
2023/11/21 05:19:00;;;;;;;11.73;4.38;;;4.80;99.90;;;;;;5070520;28;20040;-75
2023/11/21 05:21:32;;;;;;;6.30;3.35;;;4.80;99.90;;;;;;5070988;28;20029;-76
2023/11/21 05:23:57;;;;;;;16.85;4.78;;;4.80;99.90;;;;;;5069129;28;20028;-75
2023/11/21 05:26:23;;;;;;;;;;;4.90;99.90;;;;;;5071022;28;20054;-76
2023/11/21 05:28:48;;;;;;;16.83;7.10;;;4.60;99.90;;;;;;5069265;28;20409;-75
2023/11/21 05:31:14;;;;;;;;;;;4.80;99.90;;;;;;5069347;28;20123;-75
2023/11/21 05:33:40;;;;;;;12.48;5.22;;;4.70;99.90;;;;;;5069021;28;19963;-76
2023/11/21 05:36:07;;;;;;;11.82;5.65;;;4.70;99.90;;;;;;5070732;28;20040;-76
2023/11/21 05:38:35;;;;;;;20.63;9.73;;;4.60;99.90;;;;;;5070103;28;20040;-75
2023/11/21 05:41:01;;;;;;;41.30;21.52;;;4.50;99.90;;;;;;5070508;28;20059;-75
2023/11/21 05:43:27;;;;;;;;;;;4.60;99.90;;;;;;5071036;28;20500;-75
2023/11/21 05:45:53;;;;;;;41.70;18.48;;;4.50;99.90;;;;;;5069439;28;19990;-76
2023/11/21 05:48:18;;;;;;;;;;;4.70;99.90;;;;;;5070581;28;20103;-76
2023/11/21 05:50:44;;;;;;;123.50;50.25;;;4.60;99.90;;;;;;5070045;28;19904;-76
2023/11/21 05:53:11;;;;;;;;;;;4.60;99.90;;;;;;5070682;28;20642;-75
2023/11/21 05:55:37;;;;;;;54.63;26.80;;;4.60;99.90;;;;;;5068935;28;19995;-75
2023/11/21 05:58:02;;;;;;;;;;;4.60;99.90;;;;;;5069248;28;20131;-76
2023/11/21 06:00:28;;;;;;;48.13;21.77;;;4.60;99.90;;;;;;5068776;28;19931;-76
2023/11/21 06:02:54;;;;;;;;;;;4.60;99.90;;;;;;5069994;28;20031;-75
2023/11/21 06:05:23;;;;;;;52.67;21.90;;;4.50;99.90;;;;;;5070462;28;19981;-76
2023/11/21 06:07:52;;;;;;;44.20;20.25;;;4.50;99.90;;;;;;5068837;28;20031;-75
2023/11/21 06:10:20;;;;;;;39.97;20.02;;;4.50;99.90;;;;;;5071405;28;20099;-75
2023/11/21 06:12:46;;;;;;;49.03;20.98;;;4.50;99.90;;;;;;5069186;28;20032;-75
2023/11/21 06:15:14;;;;;;;;;;;4.50;99.90;;;;;;5070945;28;20512;-75
2023/11/21 06:17:41;;;;;;;39.95;19.52;;;4.40;99.90;;;;;;5068749;28;19908;-75
2023/11/21 06:20:11;;;;;;;41.53;19.70;;;4.60;99.90;;;;;;5069922;28;20032;-75
2023/11/21 06:22:41;;;;;;;38.65;18.60;;;4.70;99.90;;;;;;5069965;28;20030;-75
2023/11/21 06:25:07;;;;;;;25.48;12.65;;;4.80;99.90;;;;;;5070522;28;20024;-75
2023/11/21 06:27:36;;;;;;;17.67;9.73;;;5.00;99.90;;;;;;5070625;28;20029;-77
2023/11/21 06:30:02;;;;;;;13.45;6.93;;;5.00;99.90;;;;;;5070697;28;20074;-76
2023/11/21 06:32:29;;;;;;;13.77;5.22;;;5.00;99.90;;;;;;5069524;28;20029;-75
2023/11/21 06:34:55;;;;;;;14.55;5.65;;;5.00;99.90;;;;;;5069440;28;20024;-75
2023/11/21 06:37:23;;;;;;;11.73;5.13;;;5.00;99.90;;;;;;5070574;28;20516;-76
2023/11/21 06:39:49;;;;;;;15.77;5.05;;;5.00;99.90;;;;;;5069393;28;20432;-75
2023/11/21 06:42:15;;;;;;;10.90;6.00;;;5.00;99.90;;;;;;5069416;28;20033;-74
2023/11/21 06:44:41;;;;;;;;;;;5.00;99.90;;;;;;5071975;28;20121;-75
2023/11/21 06:47:07;;;;;;;17.17;4.05;;;5.10;99.90;;;;;;5074124;28;19904;-75
2023/11/21 06:49:32;;;;;;;;;;;5.20;99.90;;;;;;5071047;28;20558;-76
2023/11/21 06:51:58;;;;;;;8.65;4.03;;;5.20;99.90;;;;;;5073266;28;19915;-75
2023/11/21 06:54:24;;;;;;;;;;;5.20;99.90;;;;;;5087921;28;20027;-75
2023/11/21 06:56:50;;;;;;;9.35;3.63;;;5.20;99.90;;;;;;5072967;28;19924;-75
2023/11/21 06:59:16;;;;;;;;;;;5.20;99.90;;;;;;5075127;28;20504;-76
2023/11/21 07:01:41;;;;;;;10.60;4.68;;;5.20;99.90;;;;;;5071224;28;19904;-75
2023/11/21 07:04:07;;;;;;;;;;;5.20;99.90;;;;;;5069777;28;20025;-75
2023/11/21 07:06:33;;;;;;;18.77;7.00;;;5.20;99.90;;;;;;5071032;28;20338;-75
2023/11/21 07:08:58;;;;;;;;;;;5.30;99.90;;;;;;5070876;28;20029;-75
2023/11/21 07:11:25;;;;;;;27.60;10.77;;;5.30;99.90;;;;;;5071624;28;20391;-74
2023/11/21 07:13:51;;;;;;;21.30;9.57;;;5.40;99.90;;;;;;5072414;28;20036;-75
2023/11/21 07:16:18;;;;;;;19.15;9.95;;;5.40;99.90;;;;;;5072686;28;20020;-75
2023/11/21 07:18:44;;;;;;;19.05;9.18;;;5.30;99.90;;;;;;5078159;28;20400;-76
2023/11/21 07:21:11;;;;;;;;;;;5.40;99.90;;;;;;5086342;28;20032;-74
2023/11/21 07:23:38;;;;;;;23.10;10.32;;;5.40;99.90;;;;;;5081392;28;19909;-76
2023/11/21 07:26:08;;;;;;;25.00;12.65;;;5.50;99.90;;;;;;5083997;28;20027;-75
2023/11/21 07:28:34;;;;;;;25.95;13.35;;;5.60;99.90;;;;;;5080390;28;20024;-75
2023/11/21 07:31:00;;;;;;;;;;;5.80;99.90;;;;;;5083482;28;20782;-75
2023/11/21 07:33:25;;;;;;;38.90;25.88;;;5.80;99.90;;;;;;5074929;28;19947;-75
2023/11/21 07:35:51;;;;;;;;;;;5.80;99.90;;;;;;5080626;28;20050;-74
2023/11/21 07:38:18;;;;;;;66.20;43.58;;;5.90;99.90;;;;;;5075296;28;19982;-75
2023/11/21 07:40:43;;;;;;;46.50;32.50;;;5.90;99.90;;;;;;5080531;28;20038;-75
2023/11/21 07:43:10;;;;;;;;;;;6.00;99.90;;;;;;5092824;28;20024;-75
2023/11/21 07:45:36;;;;;;;45.65;30.70;;;6.10;99.90;;;;;;5091110;28;19908;-75
2023/11/21 07:48:03;;;;;;;;;;;6.10;99.90;;;;;;5080214;28;20138;-75
2023/11/21 07:50:29;;;;;;;50.53;35.08;;;6.20;99.90;;;;;;5072153;28;20357;-75
2023/11/21 07:52:55;;;;;;;;;;;6.20;99.90;;;;;;5072515;28;20025;-75
2023/11/21 07:55:20;;;;;;;41.55;28.83;;;6.30;99.90;;;;;;5070598;28;19908;-75
2023/11/21 07:57:46;;;;;;;;;;;6.40;99.90;;;;;;5072521;28;20028;-75
2023/11/21 08:00:12;;;;;;;54.45;34.47;;;6.50;99.90;;;;;;5071935;28;19913;-75
2023/11/21 08:02:42;;;;;;;54.33;30.83;;;6.50;99.90;;;;;;5071835;28;20091;-75
2023/11/21 08:05:08;;;;;;;33.90;19.45;;;6.50;99.90;;;;;;5071759;28;20032;-76
2023/11/21 08:07:34;;;;;;;21.83;13.48;;;6.60;99.90;;;;;;5071218;28;20032;-76
2023/11/21 08:10:00;;;;;;;21.42;10.80;;;6.60;99.90;;;;;;5071864;28;20044;-75
2023/11/21 08:12:27;;;;;;;;;;;6.70;99.90;;;;;;5072138;28;20047;-75
2023/11/21 08:14:53;;;;;;;21.75;13.63;;;6.70;99.90;;;;;;5070163;28;19908;-75
2023/11/21 08:17:20;;;;;;;;;;;6.70;99.90;;;;;;5072142;28;20085;-75
2023/11/21 08:19:49;;;;;;;19.52;10.40;;;6.80;99.90;;;;;;5071729;28;19923;-75
2023/11/21 08:22:16;;;;;;;19.80;11.30;;;6.80;99.90;;;;;;5071628;28;20027;-76
2023/11/21 08:24:41;;;;;;;19.83;11.70;;;6.80;99.90;;;;;;5070917;28;20477;-76
2023/11/21 08:27:07;;;;;;;;;;;6.90;99.90;;;;;;5071865;28;20028;-75
2023/11/21 08:29:34;;;;;;;18.60;9.43;;;6.90;99.90;;;;;;5071482;28;19981;-75
2023/11/21 08:31:59;;;;;;;14.13;7.80;;;6.90;99.90;;;;;;5071290;28;20039;-75
2023/11/21 08:34:25;;;;;;;;;;;6.90;99.90;;;;;;5070537;28;20017;-75
2023/11/21 08:36:51;;;;;;;9.40;4.85;;;7.00;99.90;;;;;;5071173;28;20426;-75
2023/11/21 08:39:18;;;;;;;;;;;7.10;99.90;;;;;;5071750;28;20036;-75
2023/11/21 08:41:44;;;;;;;13.77;6.82;;;7.10;99.90;;;;;;5071475;28;19958;-75
2023/11/21 08:44:10;;;;;;;;;;;7.10;99.90;;;;;;5071642;28;20077;-75
2023/11/21 08:46:37;;;;;;;22.35;15.27;;;7.20;99.90;;;;;;5071040;28;19912;-74
2023/11/21 08:49:03;;;;;;;18.20;10.68;;;7.20;99.90;;;;;;5071101;28;20440;-76
2023/11/21 08:51:29;;;;;;;;;;;7.30;99.90;;;;;;5069903;28;20046;-75
2023/11/21 08:53:58;;;;;;;18.20;9.20;;;7.40;99.90;;;;;;5070701;28;19912;-74
2023/11/21 08:56:24;;;;;;;21.70;11.23;;;7.50;99.90;;;;;;5070939;28;20458;-75
2023/11/21 08:58:50;;;;;;;;;;;7.60;99.90;;;;;;5069948;28;20546;-75
2023/11/21 09:01:17;;;;;;;17.90;10.32;;;7.60;99.90;;;;;;5071136;28;19979;-76
2023/11/21 09:03:43;;;;;;;24.00;13.73;;;7.60;99.90;;;;;;5071167;28;20069;-75
2023/11/21 09:06:09;;;;;;;26.48;15.85;;;7.70;99.90;;;;;;5071163;28;20067;-75
2023/11/21 09:08:35;;;;;;;21.17;11.77;;;7.90;99.90;;;;;;5071369;28;20103;-75
2023/11/21 09:11:01;;;;;;;;;;;8.00;99.90;;;;;;5072818;28;20154;-75
2023/11/21 09:13:27;;;;;;;16.30;9.20;;;8.00;99.90;;;;;;5071384;28;19909;-74
2023/11/21 09:15:52;;;;;;;18.80;8.38;;;7.90;99.90;;;;;;5070416;28;20035;-75
2023/11/21 09:18:19;;;;;;;;;;;8.00;99.90;;;;;;5069684;28;20036;-75
2023/11/21 09:20:44;;;;;;;17.08;7.55;;;8.10;99.90;;;;;;5070100;28;19952;-75
2023/11/21 09:23:10;;;;;;;;;;;8.10;99.90;;;;;;5070625;28;20086;-76
2023/11/21 09:25:37;;;;;;;17.50;7.03;;;8.10;99.90;;;;;;5068905;28;19915;-74
2023/11/21 09:28:07;;;;;;;15.80;6.65;;;8.10;99.90;;;;;;5070497;28;20023;-75
2023/11/21 09:30:34;;;;;;;11.48;5.55;;;8.10;99.90;;;;;;5068939;28;20033;-75
2023/11/21 09:33:00;;;;;;;19.08;6.38;;;8.10;99.90;;;;;;5070249;28;20065;-75
2023/11/21 09:35:27;;;;;;;14.40;6.18;;;8.10;99.90;;;;;;5070165;28;20031;-76
2023/11/21 09:37:53;;;;;;;35.05;19.90;;;8.20;99.90;;;;;;5068344;28;20489;-76
2023/11/21 09:40:22;;;;;;;;;;;8.00;99.90;;;;;;5070800;28;20051;-76
2023/11/21 09:42:59;;;;;;;22.45;11.43;;;8.10;99.90;;;;;;5068891;28;19908;-75
2023/11/21 09:45:31;;;;;;;17.15;10.02;;;8.10;99.90;;;;;;5064442;28;20110;-75
2023/11/21 09:47:57;;;;;;;18.02;7.70;;;8.20;99.90;;;;;;5070116;28;20103;-75
2023/11/21 09:50:23;;;;;;;;;;;8.20;99.90;;;;;;5070433;28;20453;-75
2023/11/21 09:52:57;;;;;;;10.65;6.28;;;8.20;99.90;;;;;;5070302;28;19916;-75
2023/11/21 09:55:26;;;;;;;17.45;9.18;;;8.20;99.90;;;;;;5070312;28;20060;-75
2023/11/21 09:57:54;;;;;;;22.88;9.15;;;8.20;99.90;;;;;;5070235;28;20455;-74
2023/11/21 10:00:23;;;;;;;26.80;14.52;;;8.20;99.90;;;;;;5068924;28;20127;-75
2023/11/21 10:02:49;;;;;;;22.63;8.65;;;8.30;99.90;;;;;;5070024;28;20086;-75
2023/11/21 10:05:17;;;;;;;20.25;11.18;;;8.40;99.90;;;;;;5069018;28;20025;-75
2023/11/21 10:07:47;;;;;;;20.98;14.70;;;8.50;99.90;;;;;;5070038;28;20013;-75
2023/11/21 10:10:17;;;;;;;19.73;12.80;;;8.40;99.90;;;;;;5068642;28;20029;-76
2023/11/21 10:12:46;;;;;;;29.52;16.55;;;8.40;99.90;;;;;;5068778;28;20093;-74
2023/11/21 10:15:16;;;;;;;19.83;11.70;;;8.40;99.90;;;;;;5070347;28;20021;-75
2023/11/21 10:17:45;;;;;;;13.68;6.45;;;8.40;99.90;;;;;;5068955;28;20400;-74
2023/11/21 10:20:13;;;;;;;12.95;5.80;;;8.40;99.90;;;;;;5070300;28;20037;-75
2023/11/21 10:22:43;;;;;;;14.27;5.10;;;8.40;99.90;;;;;;5074548;28;20396;-75
2023/11/21 10:25:09;;;;;;;10.50;4.30;;;8.40;99.90;;;;;;5077019;28;20035;-77
2023/11/21 10:27:39;;;;;;;8.93;4.72;;;8.40;99.90;;;;;;5070530;28;20031;-75
2023/11/21 10:30:06;;;;;;;10.77;4.53;;;8.50;99.90;;;;;;5070570;28;20067;-74
2023/11/21 10:32:32;;;;;;;14.88;5.88;;;8.40;99.90;;;;;;5070844;28;20024;-75
2023/11/21 10:35:06;;;;;;;14.55;5.88;;;8.40;99.90;;;;;;5069332;28;20032;-75
2023/11/21 10:37:42;;;;;;;13.10;5.18;;;8.40;99.90;;;;;;5068843;28;20048;-75
2023/11/21 10:40:12;;;;;;;9.65;4.82;;;8.40;99.90;;;;;;5068779;28;20142;-76
2023/11/21 10:42:41;;;;;;;11.73;4.75;;;8.40;99.90;;;;;;5069394;28;20032;-75
2023/11/21 10:45:14;;;;;;;11.82;5.68;;;8.50;99.90;;;;;;5070127;28;20028;-76
2023/11/21 10:47:44;;;;;;;17.95;5.53;;;8.50;99.90;;;;;;5071508;28;20021;-75
2023/11/21 10:50:11;;;;;;;9.13;4.47;;;8.50;99.90;;;;;;5071972;28;20025;-76
2023/11/21 10:52:46;;;;;;;11.82;6.15;;;8.40;99.90;;;;;;5073366;28;20024;-74
2023/11/21 10:55:22;;;;;;;12.90;5.57;;;8.50;99.90;;;;;;5072156;28;20028;-75
2023/11/21 10:57:53;;;;;;;50.60;21.98;;;8.40;99.90;;;;;;5073584;28;20074;-74
2023/11/21 11:00:23;;;;;;;39.25;17.20;;;8.50;99.90;;;;;;5073556;28;20040;-75
2023/11/21 11:02:52;;;;;;;20.92;7.63;;;8.50;99.90;;;;;;5073615;28;20048;-75
2023/11/21 11:05:20;;;;;;;21.33;14.05;;;8.50;99.90;;;;;;5073599;28;20401;-75
2023/11/21 11:07:54;;;;;;;21.45;11.73;;;8.60;99.90;;;;;;5073541;28;20489;-75
2023/11/21 11:10:22;;;;;;;16.55;8.45;;;8.60;99.90;;;;;;5073537;28;20405;-75
2023/11/21 11:12:48;;;;;;;17.13;9.32;;;8.60;99.90;;;;;;5073853;28;20017;-75
2023/11/21 11:15:16;;;;;;;21.00;10.65;;;8.50;99.90;;;;;;5072221;28;20751;-75
2023/11/21 11:17:44;;;;;;;18.90;8.70;;;8.50;99.90;;;;;;5073588;28;20025;-75
2023/11/21 11:20:16;;;;;;;16.05;8.13;;;8.60;99.90;;;;;;5075076;28;20040;-75
2023/11/21 11:23:14;;;;;;;15.23;8.27;;;8.50;99.90;;;;;;5073792;28;20051;-76
2023/11/21 11:25:59;;;;;;;17.30;9.98;;;8.50;99.90;;;;;;5065096;28;20105;-75
2023/11/21 11:28:42;;;;;;;30.88;14.85;;;8.60;99.90;;;;;;5071502;28;20111;-76
2023/11/21 11:31:44;;;;;;;35.58;20.25;;;8.60;99.90;;;;;;5072582;28;20029;-76
2023/11/21 11:34:19;;;;;;;38.33;20.73;;;8.70;99.90;;;;;;5071365;28;20021;-76
2023/11/21 11:36:55;;;;;;;31.00;13.18;;;8.70;99.90;;;;;;5071097;28;20658;-76
2023/11/21 11:39:28;;;;;;;17.20;9.77;;;8.70;99.90;;;;;;5071074;28;20508;-75
2023/11/21 11:41:55;;;;;;;17.48;7.47;;;8.60;99.90;;;;;;5072369;28;20016;-76
2023/11/21 11:44:39;;;;;;;18.17;6.57;;;8.60;99.90;;;;;;5072059;28;20082;-75
2023/11/21 11:47:13;;;;;;;18.73;5.93;;;8.70;99.90;;;;;;5071253;28;20027;-76
2023/11/21 11:49:58;;;;;;;14.55;5.88;;;8.70;99.90;;;;;;5071410;28;20123;-75
2023/11/21 11:52:39;;;;;;;11.20;4.55;;;8.80;99.90;;;;;;5072334;28;20052;-76
2023/11/21 11:55:10;;;;;;;12.68;4.90;;;8.80;99.90;;;;;;5071051;28;20032;-75
2023/11/21 11:57:36;;;;;;;9.68;3.97;;;8.80;99.90;;;;;;5070939;28;20031;-76
2023/11/21 12:00:11;;;;;;;11.48;6.50;;;8.80;99.90;;;;;;5071464;28;20045;-75
2023/11/21 12:02:40;;;;;;;17.55;7.97;;;8.80;99.90;;;;;;5070887;28;20028;-76
2023/11/21 12:05:13;;;;;;;27.67;10.52;;;8.80;99.90;;;;;;5071943;28;20550;-76
2023/11/21 12:07:51;;;;;;;31.63;12.20;;;8.80;99.90;;;;;;5072098;28;20031;-76
2023/11/21 12:10:18;;;;;;;18.65;8.45;;;8.80;99.90;;;;;;5073996;28;20074;-75
2023/11/21 12:12:49;;;;;;;30.65;15.30;;;8.80;99.90;;;;;;5071887;28;20036;-75
2023/11/21 12:15:15;;;;;;;39.10;21.23;;;8.80;99.90;;;;;;5071971;28;20023;-76
2023/11/21 12:17:44;;;;;;;;;;;8.80;99.90;;;;;;5071278;28;20037;-75
2023/11/21 12:20:15;;;;;;;25.50;10.23;;;8.80;99.90;;;;;;5070736;28;19912;-75
2023/11/21 12:22:48;;;;;;;17.90;9.32;;;8.80;99.90;;;;;;5070531;28;20513;-75
2023/11/21 12:25:21;;;;;;;14.23;7.00;;;8.80;99.90;;;;;;5071235;28;20040;-75
2023/11/21 12:27:49;;;;;;;25.92;10.45;;;8.80;99.90;;;;;;5070508;28;20424;-75
2023/11/21 12:30:17;;;;;;;22.58;10.75;;;8.90;99.90;;;;;;5070973;28;20035;-76
2023/11/21 12:32:49;;;;;;;21.83;8.82;;;8.90;99.90;;;;;;5071077;28;20039;-76
2023/11/21 12:35:19;;;;;;;12.20;6.55;;;8.90;99.90;;;;;;5071923;28;20023;-75
2023/11/21 12:37:46;;;;;;;14.30;5.40;;;9.00;99.90;;;;;;5070414;28;20049;-75
2023/11/21 12:40:15;;;;;;;12.77;4.25;;;9.00;99.90;;;;;;5070897;28;20036;-75
2023/11/21 12:42:48;;;;;;;11.45;4.28;;;8.90;99.90;;;;;;5071685;28;20142;-76
2023/11/21 12:45:19;;;;;;;8.30;4.00;;;8.90;99.90;;;;;;5072402;28;20106;-75
2023/11/21 12:47:49;;;;;;;16.95;6.65;;;9.00;99.90;;;;;;5072019;28;20078;-75
2023/11/21 12:50:15;;;;;;;13.65;7.70;;;8.90;99.90;;;;;;5070788;28;20379;-76
2023/11/21 12:52:50;;;;;;;;;;;8.90;99.90;;;;;;5072206;28;20035;-76
2023/11/21 12:55:24;;;;;;;16.02;5.72;;;8.90;99.90;;;;;;5070306;28;19946;-75
2023/11/21 12:57:55;;;;;;;14.63;5.88;;;9.00;99.90;;;;;;5071597;28;20040;-76
2023/11/21 13:00:31;;;;;;;16.30;5.75;;;8.90;99.90;;;;;;5070213;28;20065;-75
2023/11/21 13:02:58;;;;;;;18.02;6.13;;;8.80;99.90;;;;;;5070248;28;20043;-75
2023/11/21 13:05:32;;;;;;;14.63;5.68;;;8.80;99.90;;;;;;5070224;28;20025;-75
2023/11/21 13:08:02;;;;;;;19.20;6.05;;;8.80;99.90;;;;;;5071342;28;20029;-75
2023/11/21 13:10:30;;;;;;;18.40;5.88;;;8.80;99.90;;;;;;5070139;28;20134;-75